sensor_id;sensor_type;location;lat;lon;timestamp;temperature;humidity
5304;DHT22;2674;49.722;10.892;2023-05-16T00:00:30;10.50;99.90
5304;DHT22;2674;49.722;10.892;2023-05-16T00:03:00;10.40;99.90
5304;DHT22;2674;49.722;10.892;2023-05-16T00:05:27;10.40;99.90
5304;DHT22;2674;49.722;10.892;2023-05-16T00:07:53;10.40;99.90
5304;DHT22;2674;49.722;10.892;2023-05-16T00:10:19;10.40;99.90
5304;DHT22;2674;49.722;10.892;2023-05-16T00:12:46;10.30;99.90
5304;DHT22;2674;49.722;10.892;2023-05-16T00:15:12;10.30;99.90
5304;DHT22;2674;49.722;10.892;2023-05-16T00:17:39;10.30;99.90
5304;DHT22;2674;49.722;10.892;2023-05-16T00:20:06;10.30;99.90
5304;DHT22;2674;49.722;10.892;2023-05-16T00:22:40;10.30;99.90
5304;DHT22;2674;49.722;10.892;2023-05-16T00:25:06;10.30;99.90
5304;DHT22;2674;49.722;10.892;2023-05-16T00:27:35;10.30;99.90
5304;DHT22;2674;49.722;10.892;2023-05-16T00:30:02;10.30;99.90
5304;DHT22;2674;49.722;10.892;2023-05-16T00:32:28;10.30;99.90
5304;DHT22;2674;49.722;10.892;2023-05-16T00:34:54;10.30;99.90
5304;DHT22;2674;49.722;10.892;2023-05-16T00:37:19;10.30;99.90
5304;DHT22;2674;49.722;10.892;2023-05-16T00:39:45;10.30;99.90
5304;DHT22;2674;49.722;10.892;2023-05-16T00:42:11;10.20;99.90
5304;DHT22;2674;49.722;10.892;2023-05-16T00:44:37;10.20;99.90
5304;DHT22;2674;49.722;10.892;2023-05-16T00:47:03;10.20;99.90
5304;DHT22;2674;49.722;10.892;2023-05-16T00:49:29;10.20;99.90
5304;DHT22;2674;49.722;10.892;2023-05-16T00:51:56;10.20;99.90
5304;DHT22;2674;49.722;10.892;2023-05-16T00:54:23;10.20;99.90
5304;DHT22;2674;49.722;10.892;2023-05-16T00:56:51;10.20;99.90
5304;DHT22;2674;49.722;10.892;2023-05-16T00:59:18;10.20;99.90
5304;DHT22;2674;49.722;10.892;2023-05-16T01:01:45;10.20;99.90
5304;DHT22;2674;49.722;10.892;2023-05-16T01:04:15;10.20;99.90
5304;DHT22;2674;49.722;10.892;2023-05-16T01:06:42;10.30;99.90
5304;DHT22;2674;49.722;10.892;2023-05-16T01:09:07;10.30;99.90
5304;DHT22;2674;49.722;10.892;2023-05-16T01:19:50;10.30;99.90
5304;DHT22;2674;49.722;10.892;2023-05-16T01:25:32;10.30;99.90
5304;DHT22;2674;49.722;10.892;2023-05-16T01:28:01;10.30;99.90
5304;DHT22;2674;49.722;10.892;2023-05-16T01:30:35;10.40;99.90
5304;DHT22;2674;49.722;10.892;2023-05-16T01:33:01;10.40;99.90
5304;DHT22;2674;49.722;10.892;2023-05-16T01:35:27;10.50;99.90
5304;DHT22;2674;49.722;10.892;2023-05-16T01:38:15;10.50;99.90
5304;DHT22;2674;49.722;10.892;2023-05-16T01:41:00;10.60;99.90
5304;DHT22;2674;49.722;10.892;2023-05-16T01:43:41;10.70;99.90
5304;DHT22;2674;49.722;10.892;2023-05-16T01:46:15;10.70;99.90
5304;DHT22;2674;49.722;10.892;2023-05-16T01:49:10;10.70;99.90
5304;DHT22;2674;49.722;10.892;2023-05-16T01:51:44;10.70;99.90
5304;DHT22;2674;49.722;10.892;2023-05-16T01:54:12;10.70;99.90
5304;DHT22;2674;49.722;10.892;2023-05-16T01:56:44;10.70;99.90
5304;DHT22;2674;49.722;10.892;2023-05-16T01:59:15;10.70;99.90
5304;DHT22;2674;49.722;10.892;2023-05-16T02:01:41;10.60;99.90
5304;DHT22;2674;49.722;10.892;2023-05-16T02:04:07;10.60;99.90
5304;DHT22;2674;49.722;10.892;2023-05-16T02:06:33;10.60;99.90
5304;DHT22;2674;49.722;10.892;2023-05-16T02:08:59;10.50;99.90
5304;DHT22;2674;49.722;10.892;2023-05-16T02:11:25;10.50;99.90
5304;DHT22;2674;49.722;10.892;2023-05-16T02:13:51;10.40;99.90
5304;DHT22;2674;49.722;10.892;2023-05-16T02:16:16;10.30;99.90
5304;DHT22;2674;49.722;10.892;2023-05-16T02:18:42;10.30;99.90
5304;DHT22;2674;49.722;10.892;2023-05-16T02:21:10;10.20;99.90
5304;DHT22;2674;49.722;10.892;2023-05-16T02:23:36;10.10;99.90
5304;DHT22;2674;49.722;10.892;2023-05-16T02:26:01;9.90;99.90
5304;DHT22;2674;49.722;10.892;2023-05-16T02:28:28;9.90;99.90
5304;DHT22;2674;49.722;10.892;2023-05-16T02:30:58;9.80;99.90
5304;DHT22;2674;49.722;10.892;2023-05-16T02:33:25;9.70;99.90
5304;DHT22;2674;49.722;10.892;2023-05-16T02:35:52;9.60;99.90
5304;DHT22;2674;49.722;10.892;2023-05-16T02:38:18;9.60;99.90
5304;DHT22;2674;49.722;10.892;2023-05-16T02:40:46;9.50;99.90
5304;DHT22;2674;49.722;10.892;2023-05-16T02:43:13;9.60;99.90
5304;DHT22;2674;49.722;10.892;2023-05-16T02:45:39;9.50;99.90
5304;DHT22;2674;49.722;10.892;2023-05-16T02:48:05;9.50;99.90
5304;DHT22;2674;49.722;10.892;2023-05-16T02:50:31;9.50;99.90
5304;DHT22;2674;49.722;10.892;2023-05-16T02:52:57;9.50;99.90
5304;DHT22;2674;49.722;10.892;2023-05-16T02:55:24;9.50;99.90
5304;DHT22;2674;49.722;10.892;2023-05-16T02:57:51;9.50;99.90
5304;DHT22;2674;49.722;10.892;2023-05-16T03:00:17;9.60;99.90
5304;DHT22;2674;49.722;10.892;2023-05-16T03:02:43;9.60;99.90
5304;DHT22;2674;49.722;10.892;2023-05-16T03:05:10;9.60;99.90
5304;DHT22;2674;49.722;10.892;2023-05-16T03:07:39;9.60;99.90
5304;DHT22;2674;49.722;10.892;2023-05-16T03:10:05;9.60;99.90
5304;DHT22;2674;49.722;10.892;2023-05-16T03:12:31;9.70;99.90
5304;DHT22;2674;49.722;10.892;2023-05-16T03:14:57;9.70;99.90
5304;DHT22;2674;49.722;10.892;2023-05-16T03:17:23;9.70;99.90
5304;DHT22;2674;49.722;10.892;2023-05-16T03:19:49;9.70;99.90
5304;DHT22;2674;49.722;10.892;2023-05-16T03:22:16;9.80;99.90
5304;DHT22;2674;49.722;10.892;2023-05-16T03:24:42;9.80;99.90
5304;DHT22;2674;49.722;10.892;2023-05-16T03:27:09;9.80;99.90
5304;DHT22;2674;49.722;10.892;2023-05-16T03:29:35;9.90;99.90
5304;DHT22;2674;49.722;10.892;2023-05-16T03:32:01;9.90;99.90
5304;DHT22;2674;49.722;10.892;2023-05-16T03:34:27;9.90;99.90
5304;DHT22;2674;49.722;10.892;2023-05-16T03:36:52;9.90;99.90
5304;DHT22;2674;49.722;10.892;2023-05-16T03:39:18;9.90;99.90
5304;DHT22;2674;49.722;10.892;2023-05-16T03:41:44;9.90;99.90
5304;DHT22;2674;49.722;10.892;2023-05-16T03:44:10;9.90;99.90
5304;DHT22;2674;49.722;10.892;2023-05-16T03:46:36;9.90;99.90
5304;DHT22;2674;49.722;10.892;2023-05-16T03:49:02;9.90;99.90
5304;DHT22;2674;49.722;10.892;2023-05-16T03:51:28;9.90;99.90
5304;DHT22;2674;49.722;10.892;2023-05-16T03:53:54;9.90;99.90
5304;DHT22;2674;49.722;10.892;2023-05-16T03:56:20;9.90;99.90
5304;DHT22;2674;49.722;10.892;2023-05-16T03:58:47;10.00;99.90
5304;DHT22;2674;49.722;10.892;2023-05-16T04:01:13;10.00;99.90
5304;DHT22;2674;49.722;10.892;2023-05-16T04:03:40;10.00;99.90
5304;DHT22;2674;49.722;10.892;2023-05-16T04:06:06;10.00;99.90
5304;DHT22;2674;49.722;10.892;2023-05-16T04:08:32;10.10;99.90
5304;DHT22;2674;49.722;10.892;2023-05-16T04:10:58;10.10;99.90
5304;DHT22;2674;49.722;10.892;2023-05-16T04:13:24;10.10;99.90
5304;DHT22;2674;49.722;10.892;2023-05-16T04:15:50;10.10;99.90
5304;DHT22;2674;49.722;10.892;2023-05-16T04:18:16;10.30;99.90
5304;DHT22;2674;49.722;10.892;2023-05-16T04:20:42;10.10;99.90
5304;DHT22;2674;49.722;10.892;2023-05-16T04:23:09;10.20;99.90
5304;DHT22;2674;49.722;10.892;2023-05-16T04:25:38;10.20;99.90
5304;DHT22;2674;49.722;10.892;2023-05-16T04:28:04;10.20;99.90
5304;DHT22;2674;49.722;10.892;2023-05-16T04:30:30;10.20;99.90
5304;DHT22;2674;49.722;10.892;2023-05-16T04:32:56;10.20;99.90
5304;DHT22;2674;49.722;10.892;2023-05-16T04:35:24;10.20;99.90
5304;DHT22;2674;49.722;10.892;2023-05-16T04:37:51;10.20;99.90
5304;DHT22;2674;49.722;10.892;2023-05-16T04:40:16;10.20;99.90
5304;DHT22;2674;49.722;10.892;2023-05-16T04:42:42;10.20;99.90
5304;DHT22;2674;49.722;10.892;2023-05-16T04:45:08;10.20;99.90
5304;DHT22;2674;49.722;10.892;2023-05-16T04:47:36;10.20;99.90
5304;DHT22;2674;49.722;10.892;2023-05-16T04:50:03;10.20;99.90
5304;DHT22;2674;49.722;10.892;2023-05-16T04:52:29;10.20;99.90
5304;DHT22;2674;49.722;10.892;2023-05-16T04:54:54;10.20;99.90
5304;DHT22;2674;49.722;10.892;2023-05-16T04:57:20;10.20;99.90
5304;DHT22;2674;49.722;10.892;2023-05-16T04:59:46;10.20;99.90
5304;DHT22;2674;49.722;10.892;2023-05-16T05:02:12;10.20;99.90
5304;DHT22;2674;49.722;10.892;2023-05-16T05:04:38;10.10;99.90
5304;DHT22;2674;49.722;10.892;2023-05-16T05:07:04;10.20;99.90
5304;DHT22;2674;49.722;10.892;2023-05-16T05:09:30;10.20;99.90
5304;DHT22;2674;49.722;10.892;2023-05-16T05:11:55;10.20;99.90
5304;DHT22;2674;49.722;10.892;2023-05-16T05:14:21;10.30;99.90
5304;DHT22;2674;49.722;10.892;2023-05-16T05:16:47;10.30;99.90
5304;DHT22;2674;49.722;10.892;2023-05-16T05:19:13;10.40;99.90
5304;DHT22;2674;49.722;10.892;2023-05-16T05:21:39;10.40;99.90
5304;DHT22;2674;49.722;10.892;2023-05-16T05:24:05;10.50;99.90
5304;DHT22;2674;49.722;10.892;2023-05-16T05:26:31;10.50;99.90
5304;DHT22;2674;49.722;10.892;2023-05-16T05:28:57;10.60;99.90
5304;DHT22;2674;49.722;10.892;2023-05-16T05:31:23;10.60;99.90
5304;DHT22;2674;49.722;10.892;2023-05-16T05:33:49;10.70;99.90
5304;DHT22;2674;49.722;10.892;2023-05-16T05:36:15;10.70;99.90
5304;DHT22;2674;49.722;10.892;2023-05-16T05:38:41;10.70;99.90
5304;DHT22;2674;49.722;10.892;2023-05-16T05:41:06;10.80;99.90
5304;DHT22;2674;49.722;10.892;2023-05-16T05:43:32;10.90;99.90
5304;DHT22;2674;49.722;10.892;2023-05-16T05:45:59;10.90;99.90
5304;DHT22;2674;49.722;10.892;2023-05-16T05:48:24;11.00;99.90
5304;DHT22;2674;49.722;10.892;2023-05-16T05:50:50;11.00;99.90
5304;DHT22;2674;49.722;10.892;2023-05-16T05:53:17;11.10;99.90
5304;DHT22;2674;49.722;10.892;2023-05-16T05:55:43;11.10;99.90
5304;DHT22;2674;49.722;10.892;2023-05-16T05:58:09;11.10;99.90
5304;DHT22;2674;49.722;10.892;2023-05-16T06:00:35;11.20;99.90
5304;DHT22;2674;49.722;10.892;2023-05-16T06:03:01;11.20;99.90
5304;DHT22;2674;49.722;10.892;2023-05-16T06:05:27;11.20;99.90
5304;DHT22;2674;49.722;10.892;2023-05-16T06:07:52;11.30;99.90
5304;DHT22;2674;49.722;10.892;2023-05-16T06:10:18;11.40;99.90
5304;DHT22;2674;49.722;10.892;2023-05-16T06:12:44;11.50;99.90
5304;DHT22;2674;49.722;10.892;2023-05-16T06:15:10;11.60;99.90
5304;DHT22;2674;49.722;10.892;2023-05-16T06:17:36;11.60;99.90
5304;DHT22;2674;49.722;10.892;2023-05-16T06:20:03;11.70;99.90
5304;DHT22;2674;49.722;10.892;2023-05-16T06:22:29;11.90;99.90
5304;DHT22;2674;49.722;10.892;2023-05-16T06:24:55;12.00;99.90
5304;DHT22;2674;49.722;10.892;2023-05-16T06:27:21;12.30;99.90
5304;DHT22;2674;49.722;10.892;2023-05-16T06:29:47;12.60;85.80
5304;DHT22;2674;49.722;10.892;2023-05-16T06:32:13;12.60;50.40
5304;DHT22;2674;49.722;10.892;2023-05-16T06:34:39;12.70;68.10
5304;DHT22;2674;49.722;10.892;2023-05-16T06:37:05;12.80;57.50
5304;DHT22;2674;49.722;10.892;2023-05-16T06:39:30;13.00;54.80
5304;DHT22;2674;49.722;10.892;2023-05-16T06:41:56;13.10;55.20
5304;DHT22;2674;49.722;10.892;2023-05-16T06:44:22;13.20;39.20
5304;DHT22;2674;49.722;10.892;2023-05-16T06:46:48;13.10;34.80
5304;DHT22;2674;49.722;10.892;2023-05-16T06:49:14;13.10;35.30
5304;DHT22;2674;49.722;10.892;2023-05-16T06:51:40;13.20;44.40
5304;DHT22;2674;49.722;10.892;2023-05-16T06:54:06;13.30;26.70
5304;DHT22;2674;49.722;10.892;2023-05-16T06:56:32;13.30;31.40
5304;DHT22;2674;49.722;10.892;2023-05-16T06:58:57;13.10;43.10
5304;DHT22;2674;49.722;10.892;2023-05-16T07:01:26;13.10;33.00
5304;DHT22;2674;49.722;10.892;2023-05-16T07:03:51;13.10;42.20
5304;DHT22;2674;49.722;10.892;2023-05-16T07:06:17;13.20;39.40
5304;DHT22;2674;49.722;10.892;2023-05-16T07:08:43;13.40;36.90
5304;DHT22;2674;49.722;10.892;2023-05-16T07:11:09;13.30;21.20
5304;DHT22;2674;49.722;10.892;2023-05-16T07:13:36;13.10;32.40
5304;DHT22;2674;49.722;10.892;2023-05-16T07:16:02;13.10;37.30
5304;DHT22;2674;49.722;10.892;2023-05-16T07:18:28;13.00;56.90
5304;DHT22;2674;49.722;10.892;2023-05-16T07:20:54;13.00;55.80
5304;DHT22;2674;49.722;10.892;2023-05-16T07:23:20;13.10;39.10
5304;DHT22;2674;49.722;10.892;2023-05-16T07:25:45;13.10;33.60
5304;DHT22;2674;49.722;10.892;2023-05-16T07:28:11;13.20;48.90
5304;DHT22;2674;49.722;10.892;2023-05-16T07:30:37;13.20;20.50
5304;DHT22;2674;49.722;10.892;2023-05-16T07:33:03;13.10;24.20
5304;DHT22;2674;49.722;10.892;2023-05-16T07:35:29;13.20;27.40
5304;DHT22;2674;49.722;10.892;2023-05-16T07:37:55;13.30;24.50
5304;DHT22;2674;49.722;10.892;2023-05-16T07:40:21;13.40;26.90
5304;DHT22;2674;49.722;10.892;2023-05-16T07:42:50;13.60;25.90
5304;DHT22;2674;49.722;10.892;2023-05-16T07:45:16;13.80;18.10
5304;DHT22;2674;49.722;10.892;2023-05-16T07:47:42;14.10;32.50
5304;DHT22;2674;49.722;10.892;2023-05-16T07:50:09;14.30;1.00
5304;DHT22;2674;49.722;10.892;2023-05-16T07:52:35;14.40;1.00
5304;DHT22;2674;49.722;10.892;2023-05-16T07:55:01;14.30;1.00
5304;DHT22;2674;49.722;10.892;2023-05-16T07:57:27;14.30;1.00
5304;DHT22;2674;49.722;10.892;2023-05-16T07:59:53;14.30;1.00
5304;DHT22;2674;49.722;10.892;2023-05-16T08:02:20;14.30;1.00
5304;DHT22;2674;49.722;10.892;2023-05-16T08:04:47;14.30;1.00
5304;DHT22;2674;49.722;10.892;2023-05-16T08:07:14;14.30;1.00
5304;DHT22;2674;49.722;10.892;2023-05-16T08:09:40;14.20;1.00
5304;DHT22;2674;49.722;10.892;2023-05-16T08:12:07;14.00;1.00
5304;DHT22;2674;49.722;10.892;2023-05-16T08:14:33;14.00;1.00
5304;DHT22;2674;49.722;10.892;2023-05-16T08:16:59;14.00;1.00
5304;DHT22;2674;49.722;10.892;2023-05-16T08:19:26;14.00;1.00
5304;DHT22;2674;49.722;10.892;2023-05-16T08:21:52;13.90;1.00
5304;DHT22;2674;49.722;10.892;2023-05-16T08:24:17;13.90;1.00
5304;DHT22;2674;49.722;10.892;2023-05-16T08:26:43;13.90;1.00
5304;DHT22;2674;49.722;10.892;2023-05-16T08:29:09;13.90;1.00
5304;DHT22;2674;49.722;10.892;2023-05-16T08:31:35;13.80;1.00
5304;DHT22;2674;49.722;10.892;2023-05-16T08:34:01;13.80;1.00
5304;DHT22;2674;49.722;10.892;2023-05-16T08:36:27;13.90;1.00
5304;DHT22;2674;49.722;10.892;2023-05-16T08:38:54;13.90;1.00
5304;DHT22;2674;49.722;10.892;2023-05-16T08:41:19;13.70;1.00
5304;DHT22;2674;49.722;10.892;2023-05-16T08:43:46;13.60;1.00
5304;DHT22;2674;49.722;10.892;2023-05-16T08:46:12;13.60;1.00
5304;DHT22;2674;49.722;10.892;2023-05-16T08:48:42;13.50;1.00
5304;DHT22;2674;49.722;10.892;2023-05-16T08:51:11;13.60;1.00
5304;DHT22;2674;49.722;10.892;2023-05-16T08:53:44;13.60;1.00
5304;DHT22;2674;49.722;10.892;2023-05-16T08:56:15;13.60;1.00
5304;DHT22;2674;49.722;10.892;2023-05-16T08:58:41;13.60;1.00
5304;DHT22;2674;49.722;10.892;2023-05-16T09:01:08;13.70;1.00
5304;DHT22;2674;49.722;10.892;2023-05-16T09:03:36;13.70;1.00
5304;DHT22;2674;49.722;10.892;2023-05-16T09:06:04;13.80;1.00
5304;DHT22;2674;49.722;10.892;2023-05-16T09:08:30;13.70;1.00
5304;DHT22;2674;49.722;10.892;2023-05-16T09:10:56;13.70;1.00
5304;DHT22;2674;49.722;10.892;2023-05-16T09:13:24;13.80;1.00
5304;DHT22;2674;49.722;10.892;2023-05-16T09:18:38;14.10;1.00
5304;DHT22;2674;49.722;10.892;2023-05-16T09:21:05;14.40;1.00
5304;DHT22;2674;49.722;10.892;2023-05-16T09:23:32;14.50;1.00
5304;DHT22;2674;49.722;10.892;2023-05-16T09:25:58;14.80;1.00
5304;DHT22;2674;49.722;10.892;2023-05-16T09:28:25;15.10;1.00
5304;DHT22;2674;49.722;10.892;2023-05-16T09:30:52;15.30;1.00
5304;DHT22;2674;49.722;10.892;2023-05-16T09:33:21;15.60;1.00
5304;DHT22;2674;49.722;10.892;2023-05-16T09:35:58;15.90;1.00
5304;DHT22;2674;49.722;10.892;2023-05-16T09:38:25;16.20;1.00
5304;DHT22;2674;49.722;10.892;2023-05-16T09:40:52;16.40;1.00
5304;DHT22;2674;49.722;10.892;2023-05-16T09:43:24;16.60;1.00
5304;DHT22;2674;49.722;10.892;2023-05-16T09:45:50;16.50;1.00
5304;DHT22;2674;49.722;10.892;2023-05-16T09:48:16;16.40;1.00
5304;DHT22;2674;49.722;10.892;2023-05-16T09:50:47;16.10;1.00
5304;DHT22;2674;49.722;10.892;2023-05-16T09:53:17;15.70;1.00
5304;DHT22;2674;49.722;10.892;2023-05-16T09:55:42;15.20;1.00
5304;DHT22;2674;49.722;10.892;2023-05-16T09:58:08;15.20;1.00
5304;DHT22;2674;49.722;10.892;2023-05-16T10:00:34;15.10;1.00
5304;DHT22;2674;49.722;10.892;2023-05-16T10:03:01;15.10;1.00
5304;DHT22;2674;49.722;10.892;2023-05-16T10:05:30;15.10;1.00
5304;DHT22;2674;49.722;10.892;2023-05-16T10:07:57;15.10;1.00
5304;DHT22;2674;49.722;10.892;2023-05-16T10:10:23;15.10;1.00
5304;DHT22;2674;49.722;10.892;2023-05-16T10:12:50;15.00;1.00
5304;DHT22;2674;49.722;10.892;2023-05-16T10:15:17;15.00;1.00
5304;DHT22;2674;49.722;10.892;2023-05-16T10:17:50;15.30;1.00
5304;DHT22;2674;49.722;10.892;2023-05-16T10:20:19;15.40;1.00
5304;DHT22;2674;49.722;10.892;2023-05-16T10:22:46;15.70;1.00
5304;DHT22;2674;49.722;10.892;2023-05-16T10:27:51;15.90;1.00
5304;DHT22;2674;49.722;10.892;2023-05-16T10:30:17;16.30;1.00
5304;DHT22;2674;49.722;10.892;2023-05-16T10:32:45;16.60;1.00
5304;DHT22;2674;49.722;10.892;2023-05-16T10:35:12;16.90;1.00
5304;DHT22;2674;49.722;10.892;2023-05-16T10:37:38;17.00;1.00
5304;DHT22;2674;49.722;10.892;2023-05-16T10:40:07;17.20;1.00
5304;DHT22;2674;49.722;10.892;2023-05-16T10:42:34;17.00;1.00
5304;DHT22;2674;49.722;10.892;2023-05-16T10:45:19;16.80;1.00
5304;DHT22;2674;49.722;10.892;2023-05-16T10:47:56;16.80;1.00
5304;DHT22;2674;49.722;10.892;2023-05-16T10:50:42;16.90;1.00
5304;DHT22;2674;49.722;10.892;2023-05-16T10:53:29;16.50;1.00
5304;DHT22;2674;49.722;10.892;2023-05-16T10:58:39;15.80;1.00
5304;DHT22;2674;49.722;10.892;2023-05-16T11:01:23;15.60;1.00
5304;DHT22;2674;49.722;10.892;2023-05-16T11:06:25;15.10;1.00
5304;DHT22;2674;49.722;10.892;2023-05-16T11:11:43;14.70;1.00
5304;DHT22;2674;49.722;10.892;2023-05-16T11:16:52;14.30;1.00
5304;DHT22;2674;49.722;10.892;2023-05-16T11:25:08;14.20;1.00
5304;DHT22;2674;49.722;10.892;2023-05-16T11:27:43;14.20;1.00
5304;DHT22;2674;49.722;10.892;2023-05-16T11:30:10;14.40;1.00
5304;DHT22;2674;49.722;10.892;2023-05-16T11:32:38;14.40;1.00
5304;DHT22;2674;49.722;10.892;2023-05-16T11:35:09;14.30;1.00
5304;DHT22;2674;49.722;10.892;2023-05-16T11:37:35;14.30;1.00
5304;DHT22;2674;49.722;10.892;2023-05-16T11:40:05;14.30;1.00
5304;DHT22;2674;49.722;10.892;2023-05-16T11:42:41;14.40;1.00
5304;DHT22;2674;49.722;10.892;2023-05-16T11:45:15;14.50;1.00
5304;DHT22;2674;49.722;10.892;2023-05-16T11:47:43;14.70;1.00
5304;DHT22;2674;49.722;10.892;2023-05-16T11:50:16;14.80;1.00
5304;DHT22;2674;49.722;10.892;2023-05-16T11:52:52;14.90;1.00
5304;DHT22;2674;49.722;10.892;2023-05-16T11:55:22;15.10;1.00
5304;DHT22;2674;49.722;10.892;2023-05-16T11:57:52;15.40;1.00
5304;DHT22;2674;49.722;10.892;2023-05-16T12:00:23;15.60;1.00
5304;DHT22;2674;49.722;10.892;2023-05-16T12:02:52;15.80;1.00
5304;DHT22;2674;49.722;10.892;2023-05-16T12:05:19;15.80;1.00
5304;DHT22;2674;49.722;10.892;2023-05-16T12:07:50;15.40;1.00
5304;DHT22;2674;49.722;10.892;2023-05-16T12:10:19;15.30;1.00
5304;DHT22;2674;49.722;10.892;2023-05-16T12:12:47;15.30;1.00
5304;DHT22;2674;49.722;10.892;2023-05-16T12:15:13;15.40;1.00
5304;DHT22;2674;49.722;10.892;2023-05-16T12:17:40;15.60;1.00
5304;DHT22;2674;49.722;10.892;2023-05-16T12:20:08;15.80;1.00
5304;DHT22;2674;49.722;10.892;2023-05-16T12:22:43;15.90;1.00
5304;DHT22;2674;49.722;10.892;2023-05-16T12:28:00;15.90;1.00
5304;DHT22;2674;49.722;10.892;2023-05-16T12:30:28;15.60;1.00
5304;DHT22;2674;49.722;10.892;2023-05-16T12:33:02;15.30;1.00
5304;DHT22;2674;49.722;10.892;2023-05-16T12:35:30;15.20;1.00
5304;DHT22;2674;49.722;10.892;2023-05-16T12:37:57;15.30;1.00
5304;DHT22;2674;49.722;10.892;2023-05-16T12:40:26;15.40;1.00
5304;DHT22;2674;49.722;10.892;2023-05-16T12:42:53;15.50;1.00
5304;DHT22;2674;49.722;10.892;2023-05-16T12:45:19;15.50;1.00
5304;DHT22;2674;49.722;10.892;2023-05-16T12:47:46;15.40;1.00
5304;DHT22;2674;49.722;10.892;2023-05-16T12:50:13;15.30;1.00
5304;DHT22;2674;49.722;10.892;2023-05-16T12:52:52;15.30;1.00
5304;DHT22;2674;49.722;10.892;2023-05-16T12:55:21;15.30;1.00
5304;DHT22;2674;49.722;10.892;2023-05-16T13:00:19;15.60;1.00
5304;DHT22;2674;49.722;10.892;2023-05-16T13:02:46;15.60;1.00
5304;DHT22;2674;49.722;10.892;2023-05-16T13:05:13;15.70;1.00
5304;DHT22;2674;49.722;10.892;2023-05-16T13:07:39;15.70;1.00
5304;DHT22;2674;49.722;10.892;2023-05-16T13:10:06;15.90;1.00
5304;DHT22;2674;49.722;10.892;2023-05-16T13:12:38;15.90;1.00
5304;DHT22;2674;49.722;10.892;2023-05-16T13:15:09;16.30;1.00
5304;DHT22;2674;49.722;10.892;2023-05-16T13:17:40;16.00;1.00
5304;DHT22;2674;49.722;10.892;2023-05-16T13:20:07;15.60;1.00
5304;DHT22;2674;49.722;10.892;2023-05-16T13:22:35;15.40;1.00
5304;DHT22;2674;49.722;10.892;2023-05-16T13:25:03;15.20;1.00
5304;DHT22;2674;49.722;10.892;2023-05-16T13:27:32;15.20;1.00
5304;DHT22;2674;49.722;10.892;2023-05-16T13:29:59;15.00;1.00
5304;DHT22;2674;49.722;10.892;2023-05-16T13:32:25;14.90;1.00
5304;DHT22;2674;49.722;10.892;2023-05-16T13:34:52;14.90;1.00
5304;DHT22;2674;49.722;10.892;2023-05-16T13:37:19;14.70;1.00
5304;DHT22;2674;49.722;10.892;2023-05-16T13:39:45;14.70;1.00
5304;DHT22;2674;49.722;10.892;2023-05-16T13:42:11;14.60;1.00
5304;DHT22;2674;49.722;10.892;2023-05-16T13:44:37;14.50;1.00
5304;DHT22;2674;49.722;10.892;2023-05-16T13:47:03;14.50;1.00
5304;DHT22;2674;49.722;10.892;2023-05-16T13:49:29;14.50;1.00
5304;DHT22;2674;49.722;10.892;2023-05-16T13:51:55;14.50;1.00
5304;DHT22;2674;49.722;10.892;2023-05-16T13:54:22;14.60;1.00
5304;DHT22;2674;49.722;10.892;2023-05-16T13:56:48;14.50;1.00
5304;DHT22;2674;49.722;10.892;2023-05-16T13:59:14;14.30;1.00
5304;DHT22;2674;49.722;10.892;2023-05-16T14:01:40;14.10;1.00
5304;DHT22;2674;49.722;10.892;2023-05-16T14:04:06;14.00;1.00
5304;DHT22;2674;49.722;10.892;2023-05-16T14:06:32;13.80;1.00
5304;DHT22;2674;49.722;10.892;2023-05-16T14:08:58;13.80;1.00
5304;DHT22;2674;49.722;10.892;2023-05-16T14:11:24;13.90;1.00
5304;DHT22;2674;49.722;10.892;2023-05-16T14:13:55;14.20;1.00
5304;DHT22;2674;49.722;10.892;2023-05-16T14:16:21;14.40;1.00
5304;DHT22;2674;49.722;10.892;2023-05-16T14:18:47;14.40;1.00
5304;DHT22;2674;49.722;10.892;2023-05-16T14:21:13;14.60;1.00
5304;DHT22;2674;49.722;10.892;2023-05-16T14:23:39;14.60;1.00
5304;DHT22;2674;49.722;10.892;2023-05-16T14:26:05;14.60;1.00
5304;DHT22;2674;49.722;10.892;2023-05-16T14:28:31;14.70;1.00
5304;DHT22;2674;49.722;10.892;2023-05-16T14:30:58;14.70;1.00
5304;DHT22;2674;49.722;10.892;2023-05-16T14:33:24;14.40;1.00
5304;DHT22;2674;49.722;10.892;2023-05-16T14:35:51;14.20;1.00
5304;DHT22;2674;49.722;10.892;2023-05-16T14:38:18;14.10;1.00
5304;DHT22;2674;49.722;10.892;2023-05-16T14:40:44;14.00;1.00
5304;DHT22;2674;49.722;10.892;2023-05-16T14:43:10;13.90;1.00
5304;DHT22;2674;49.722;10.892;2023-05-16T14:45:37;13.80;1.00
5304;DHT22;2674;49.722;10.892;2023-05-16T14:48:07;13.70;1.00
5304;DHT22;2674;49.722;10.892;2023-05-16T14:50:33;13.60;1.00
5304;DHT22;2674;49.722;10.892;2023-05-16T14:52:59;13.60;1.00
5304;DHT22;2674;49.722;10.892;2023-05-16T14:55:25;13.50;1.00
5304;DHT22;2674;49.722;10.892;2023-05-16T14:57:51;13.50;1.00
5304;DHT22;2674;49.722;10.892;2023-05-16T15:00:22;13.40;1.00
5304;DHT22;2674;49.722;10.892;2023-05-16T15:02:49;13.40;1.00
5304;DHT22;2674;49.722;10.892;2023-05-16T15:05:15;13.40;1.00
5304;DHT22;2674;49.722;10.892;2023-05-16T15:07:41;13.50;1.00
5304;DHT22;2674;49.722;10.892;2023-05-16T15:10:08;13.60;1.00
5304;DHT22;2674;49.722;10.892;2023-05-16T15:12:35;13.70;1.00
5304;DHT22;2674;49.722;10.892;2023-05-16T15:15:01;13.70;1.00
5304;DHT22;2674;49.722;10.892;2023-05-16T15:17:26;13.60;1.00
5304;DHT22;2674;49.722;10.892;2023-05-16T15:19:52;13.60;1.00
5304;DHT22;2674;49.722;10.892;2023-05-16T15:22:19;13.40;1.00
5304;DHT22;2674;49.722;10.892;2023-05-16T15:24:45;13.30;1.00
5304;DHT22;2674;49.722;10.892;2023-05-16T15:27:11;13.20;1.00
5304;DHT22;2674;49.722;10.892;2023-05-16T15:29:36;13.10;1.00
5304;DHT22;2674;49.722;10.892;2023-05-16T15:32:03;13.10;1.00
5304;DHT22;2674;49.722;10.892;2023-05-16T15:34:33;12.90;1.00
5304;DHT22;2674;49.722;10.892;2023-05-16T15:37:00;13.00;1.00
5304;DHT22;2674;49.722;10.892;2023-05-16T15:39:25;12.90;1.00
5304;DHT22;2674;49.722;10.892;2023-05-16T15:41:54;12.90;1.00
5304;DHT22;2674;49.722;10.892;2023-05-16T15:44:20;12.90;1.00
5304;DHT22;2674;49.722;10.892;2023-05-16T15:46:46;12.90;1.00
5304;DHT22;2674;49.722;10.892;2023-05-16T15:49:12;13.00;1.00
5304;DHT22;2674;49.722;10.892;2023-05-16T15:51:38;13.10;1.00
5304;DHT22;2674;49.722;10.892;2023-05-16T15:54:04;13.20;1.00
5304;DHT22;2674;49.722;10.892;2023-05-16T15:56:30;13.20;1.00
5304;DHT22;2674;49.722;10.892;2023-05-16T15:58:56;13.20;1.00
5304;DHT22;2674;49.722;10.892;2023-05-16T16:01:22;13.30;1.00
5304;DHT22;2674;49.722;10.892;2023-05-16T16:03:48;13.20;1.00
5304;DHT22;2674;49.722;10.892;2023-05-16T16:06:14;13.20;1.00
5304;DHT22;2674;49.722;10.892;2023-05-16T16:08:40;13.10;1.00
5304;DHT22;2674;49.722;10.892;2023-05-16T16:11:06;13.20;1.00
5304;DHT22;2674;49.722;10.892;2023-05-16T16:13:31;13.20;1.00
5304;DHT22;2674;49.722;10.892;2023-05-16T16:15:57;13.30;1.00
5304;DHT22;2674;49.722;10.892;2023-05-16T16:18:23;13.30;1.00
5304;DHT22;2674;49.722;10.892;2023-05-16T16:20:49;13.30;1.00
5304;DHT22;2674;49.722;10.892;2023-05-16T16:23:17;13.30;1.00
5304;DHT22;2674;49.722;10.892;2023-05-16T16:25:43;13.30;1.00
5304;DHT22;2674;49.722;10.892;2023-05-16T16:28:09;13.30;1.00
5304;DHT22;2674;49.722;10.892;2023-05-16T16:30:35;13.30;1.00
5304;DHT22;2674;49.722;10.892;2023-05-16T16:33:01;13.30;1.00